createdAt,value
2023-04-17T00:00:04.809Z,101603.00
2023-04-17T00:02:32.742Z,101607.00
2023-04-17T00:05:00.954Z,101613.00
2023-04-17T00:07:28.652Z,101616.00
2023-04-17T00:09:56.402Z,101603.00
2023-04-17T00:12:24.074Z,101615.00
2023-04-17T00:14:53.199Z,101605.00
2023-04-17T00:17:20.880Z,101615.00
2023-04-17T00:19:50.130Z,101606.00
2023-04-17T00:22:17.842Z,101616.00
2023-04-17T00:24:45.712Z,101609.00
2023-04-17T00:27:13.399Z,101607.00
2023-04-17T00:29:41.125Z,101615.00
2023-04-17T00:32:10.448Z,101605.00
2023-04-17T00:34:40.389Z,101609.00
2023-04-17T00:37:08.295Z,101616.00
2023-04-17T00:39:35.958Z,101608.00
2023-04-17T00:42:03.770Z,101598.00
2023-04-17T00:44:31.473Z,101612.00
2023-04-17T00:46:59.277Z,101609.00
2023-04-17T00:49:29.621Z,101612.00
2023-04-17T00:51:57.549Z,101620.00
2023-04-17T00:54:26.096Z,101619.00
2023-04-17T00:56:56.358Z,101618.00
2023-04-17T00:59:24.731Z,101606.00
2023-04-17T01:01:52.396Z,101614.00
2023-04-17T01:04:20.894Z,101608.00
2023-04-17T01:06:49.988Z,101621.00
2023-04-17T01:09:17.759Z,101606.00
2023-04-17T01:11:45.430Z,101608.00
2023-04-17T01:14:13.122Z,101618.00
2023-04-17T01:16:42.076Z,101609.00
2023-04-17T01:19:10.242Z,101620.00
2023-04-17T01:21:38.155Z,101616.00
2023-04-17T01:24:07.900Z,101616.00
2023-04-17T01:26:36.373Z,101618.00
2023-04-17T01:29:04.141Z,101609.00
2023-04-17T01:31:32.056Z,101624.00
2023-04-17T01:34:01.079Z,101620.00
2023-04-17T01:36:29.398Z,101617.00
2023-04-17T01:38:57.130Z,101616.00
2023-04-17T01:41:26.476Z,101622.00
2023-04-17T01:43:54.206Z,101618.00
2023-04-17T01:46:21.953Z,101620.00
2023-04-17T01:48:49.648Z,101626.00
2023-04-17T01:51:17.342Z,101631.00
2023-04-17T01:53:45.041Z,101625.00
2023-04-17T01:56:13.731Z,101616.00
2023-04-17T01:58:43.027Z,101632.00
2023-04-17T02:01:10.753Z,101622.00
2023-04-17T02:03:38.676Z,101627.00
2023-04-17T02:06:06.732Z,101632.00
2023-04-17T02:08:34.504Z,101631.00
2023-04-17T02:11:02.263Z,101632.00
2023-04-17T02:13:29.969Z,101627.00
2023-04-17T02:15:59.144Z,101634.00
2023-04-17T02:18:26.924Z,101637.00
2023-04-17T02:20:54.660Z,101631.00
2023-04-17T02:23:22.320Z,101634.00
2023-04-17T02:25:50.172Z,101634.00
2023-04-17T02:28:17.826Z,101642.00
2023-04-17T02:30:45.741Z,101639.00
2023-04-17T02:33:14.800Z,101633.00
2023-04-17T02:35:42.501Z,101636.00
2023-04-17T02:38:10.257Z,101630.00
2023-04-17T02:40:38.049Z,101633.00
2023-04-17T02:43:05.944Z,101633.00
2023-04-17T02:45:33.673Z,101640.00
2023-04-17T02:48:01.768Z,101633.00
2023-04-17T02:50:30.852Z,101634.00
2023-04-17T02:52:58.533Z,101640.00
2023-04-17T02:55:26.444Z,101631.00
2023-04-17T02:57:54.151Z,101640.00
2023-04-17T03:00:22.972Z,101632.00
2023-04-17T03:02:51.156Z,101636.00
2023-04-17T03:05:20.345Z,101637.00
2023-04-17T03:07:49.500Z,101635.00
2023-04-17T03:10:17.311Z,101642.00
2023-04-17T03:12:45.022Z,101640.00
2023-04-17T03:15:12.859Z,101643.00
2023-04-17T03:17:40.984Z,101652.00
2023-04-17T03:20:09.982Z,101647.00
2023-04-17T03:22:37.969Z,101653.00
2023-04-17T03:25:07.900Z,101655.00
2023-04-17T03:27:35.577Z,101661.00
2023-04-17T03:30:03.365Z,101659.00
2023-04-17T03:32:31.158Z,101662.00
2023-04-17T03:34:58.852Z,101678.00
2023-04-17T03:37:26.518Z,101657.00
2023-04-17T03:39:55.560Z,101667.00
2023-04-17T03:42:26.046Z,101667.00
2023-04-17T03:44:53.746Z,101675.00
2023-04-17T03:47:21.441Z,101676.00
2023-04-17T03:49:49.215Z,101678.00
2023-04-17T03:52:16.997Z,101669.00
2023-04-17T03:54:44.667Z,101674.00
2023-04-17T03:57:12.408Z,101668.00
2023-04-17T03:59:41.470Z,101661.00
2023-04-17T04:02:09.696Z,101672.00
2023-04-17T04:04:37.612Z,101670.00
2023-04-17T04:07:05.628Z,101672.00
2023-04-17T04:09:33.312Z,101679.00
2023-04-17T04:12:01.310Z,101676.00
2023-04-17T04:14:29.048Z,101687.00
2023-04-17T04:16:58.189Z,101677.00
2023-04-17T04:19:26.054Z,101675.00
2023-04-17T04:21:54.167Z,101679.00
2023-04-17T04:24:21.846Z,101686.00
2023-04-17T04:26:50.649Z,101687.00
2023-04-17T04:29:18.827Z,101688.00
2023-04-17T04:31:50.835Z,101685.00
2023-04-17T04:34:21.672Z,101683.00
2023-04-17T04:36:50.831Z,101684.00
2023-04-17T04:39:20.705Z,101686.00
2023-04-17T04:41:50.366Z,101686.00
2023-04-17T04:44:18.503Z,101698.00
2023-04-17T04:46:46.312Z,101695.00
2023-04-17T04:49:14.330Z,101695.00
2023-04-17T04:51:43.550Z,101698.00
2023-04-17T04:54:11.254Z,101702.00
2023-04-17T04:56:40.114Z,101697.00
2023-04-17T04:59:07.873Z,101693.00
2023-04-17T05:01:36.052Z,101705.00
2023-04-17T05:04:04.146Z,101703.00
2023-04-17T05:06:32.237Z,101710.00
2023-04-17T05:09:01.442Z,101720.00
2023-04-17T05:11:29.126Z,101722.00
2023-04-17T05:13:56.897Z,101718.00
2023-04-17T05:16:24.620Z,101718.00
2023-04-17T05:18:52.370Z,101729.00
2023-04-17T05:21:20.118Z,101723.00
2023-04-17T05:23:47.815Z,101724.00
2023-04-17T05:26:17.021Z,101714.00
2023-04-17T05:28:45.551Z,101741.00
2023-04-17T05:31:13.364Z,101741.00
2023-04-17T05:33:41.275Z,101737.00
2023-04-17T05:36:09.508Z,101741.00
2023-04-17T05:38:37.497Z,101737.00
2023-04-17T05:41:07.595Z,101742.00
2023-04-17T05:43:36.943Z,101753.00
2023-04-17T05:46:04.806Z,101747.00
2023-04-17T05:48:32.764Z,101746.00
2023-04-17T05:51:00.710Z,101747.00
2023-04-17T05:53:30.310Z,101759.00
2023-04-17T05:55:58.687Z,101748.00
2023-04-17T05:58:26.358Z,101752.00
2023-04-17T06:00:57.666Z,101757.00
2023-04-17T06:03:25.914Z,101753.00
2023-04-17T06:05:54.100Z,101758.00
2023-04-17T06:08:22.699Z,101759.00
2023-04-17T06:10:52.160Z,101753.00
2023-04-17T06:13:20.544Z,101762.00
2023-04-17T06:15:48.184Z,101756.00
2023-04-17T06:18:17.662Z,101760.00
2023-04-17T06:20:45.741Z,101763.00
2023-04-17T06:23:13.671Z,101776.00
2023-04-17T06:25:41.598Z,101777.00
2023-04-17T06:28:09.688Z,101781.00
2023-04-17T06:30:37.483Z,101782.00
2023-04-17T06:33:05.784Z,101780.00
2023-04-17T06:35:35.106Z,101786.00
2023-04-17T06:38:03.205Z,101776.00
2023-04-17T06:40:30.897Z,101779.00
2023-04-17T06:42:58.693Z,101787.00
2023-04-17T06:45:26.574Z,101782.00
2023-04-17T06:47:54.447Z,101787.00
2023-04-17T06:50:22.423Z,101786.00
2023-04-17T06:52:51.691Z,101785.00
2023-04-17T06:55:20.032Z,101789.00
2023-04-17T06:57:47.773Z,101787.00
2023-04-17T07:00:16.373Z,101791.00
2023-04-17T07:02:44.782Z,101787.00
2023-04-17T07:05:13.496Z,101786.00
2023-04-17T07:07:41.576Z,101795.00
2023-04-17T07:10:11.154Z,101795.00
2023-04-17T07:12:38.936Z,101794.00
2023-04-17T07:15:08.044Z,101796.00
2023-04-17T07:17:35.883Z,101780.00
2023-04-17T07:20:05.277Z,101791.00
2023-04-17T07:22:33.281Z,101792.00
2023-04-17T07:25:01.732Z,101802.00
2023-04-17T07:27:30.924Z,101801.00
2023-04-17T07:29:58.703Z,101796.00
2023-04-17T07:32:26.531Z,101798.00
2023-04-17T07:34:54.686Z,101802.00
2023-04-17T07:37:22.650Z,101804.00
2023-04-17T07:39:51.105Z,101802.00
2023-04-17T07:42:18.866Z,101801.00
2023-04-17T07:44:50.683Z,101793.00
2023-04-17T07:47:18.516Z,101796.00
2023-04-17T07:49:49.173Z,101800.00
2023-04-17T07:52:18.044Z,101811.00
2023-04-17T07:54:45.923Z,101804.00
2023-04-17T07:57:14.989Z,101806.00
2023-04-17T07:59:42.759Z,101807.00
2023-04-17T08:02:11.986Z,101801.00
2023-04-17T08:04:40.275Z,101808.00
2023-04-17T08:07:10.605Z,101803.00
2023-04-17T08:09:38.442Z,101804.00
2023-04-17T08:12:07.255Z,101810.00
2023-04-17T08:14:35.047Z,101820.00
2023-04-17T08:17:03.770Z,101813.00
2023-04-17T08:19:33.023Z,101810.00
2023-04-17T08:22:03.801Z,101806.00
2023-04-17T08:24:32.700Z,101817.00
2023-04-17T08:27:00.483Z,101811.00
2023-04-17T08:29:28.381Z,101825.00
2023-04-17T08:32:12.599Z,101830.00
2023-04-17T08:34:43.619Z,101825.00
2023-04-17T08:37:11.463Z,101830.00
2023-04-17T08:39:39.227Z,101827.00
2023-04-17T08:42:13.284Z,101838.00
2023-04-17T08:44:45.836Z,101832.00
2023-04-17T08:47:14.436Z,101830.00
2023-04-17T08:49:44.082Z,101834.00
2023-04-17T08:52:12.181Z,101830.00
2023-04-17T08:54:40.744Z,101824.00
2023-04-17T08:57:08.518Z,101828.00
2023-04-17T08:59:36.262Z,101832.00
2023-04-17T09:02:05.861Z,101827.00
2023-04-17T09:04:39.240Z,101827.00
2023-04-17T09:07:09.901Z,101824.00
2023-04-17T09:09:51.501Z,101834.00
2023-04-17T09:12:19.637Z,101841.00
2023-04-17T09:14:47.651Z,101839.00
2023-04-17T09:17:17.360Z,101829.00
2023-04-17T09:20:11.552Z,101828.00
2023-04-17T09:22:42.391Z,101808.00
2023-04-17T09:25:18.051Z,101828.00
2023-04-17T09:27:46.137Z,101827.00
2023-04-17T09:30:14.422Z,101830.00
2023-04-17T09:32:42.401Z,101828.00
2023-04-17T09:35:10.237Z,101837.00
2023-04-17T09:37:53.809Z,101823.00
2023-04-17T09:40:22.858Z,101836.00
2023-04-17T09:42:59.386Z,101841.00
2023-04-17T09:45:33.094Z,101839.00
2023-04-17T09:48:01.008Z,101835.00
2023-04-17T09:50:28.969Z,101841.00
2023-04-17T09:52:58.722Z,101838.00
2023-04-17T09:55:29.938Z,101834.00
2023-04-17T09:57:59.186Z,101843.00
2023-04-17T10:00:28.034Z,101823.00
2023-04-17T10:02:57.825Z,101836.00
2023-04-17T10:05:27.612Z,101836.00
2023-04-17T10:07:56.761Z,101840.00
2023-04-17T10:10:28.794Z,101837.00
2023-04-17T10:12:59.209Z,101829.00
2023-04-17T10:15:28.769Z,101825.00
2023-04-17T10:17:57.771Z,101833.00
2023-04-17T10:20:38.227Z,101833.00
2023-04-17T10:23:35.072Z,101826.00
2023-04-17T10:26:45.898Z,101830.00
2023-04-17T10:29:15.098Z,101834.00
2023-04-17T10:32:25.462Z,101829.00
2023-04-17T10:34:54.456Z,101823.00
2023-04-17T10:37:25.722Z,101837.00
2023-04-17T10:39:56.976Z,101829.00
2023-04-17T10:42:27.226Z,101822.00
2023-04-17T10:44:59.691Z,101821.00
2023-04-17T10:47:31.966Z,101823.00
2023-04-17T10:50:01.087Z,101823.00
2023-04-17T10:52:44.922Z,101821.00
2023-04-17T10:55:17.469Z,101823.00
2023-04-17T10:57:57.565Z,101800.00
2023-04-17T11:00:33.082Z,101798.00
2023-04-17T11:03:04.500Z,101804.00
2023-04-17T11:05:33.181Z,101806.00
2023-04-17T11:08:01.450Z,101797.00
2023-04-17T11:10:29.748Z,101798.00
2023-04-17T11:12:57.609Z,101813.00
2023-04-17T11:15:31.213Z,101791.00
2023-04-17T11:18:00.037Z,101813.00
2023-04-17T11:20:29.847Z,101819.00
2023-04-17T11:23:01.377Z,101809.00
2023-04-17T11:25:31.650Z,101825.00
2023-04-17T11:28:01.169Z,101817.00
2023-04-17T11:30:31.719Z,101804.00
2023-04-17T11:33:01.215Z,101816.00
2023-04-17T11:35:31.595Z,101805.00
2023-04-17T11:38:21.726Z,101813.00
2023-04-17T11:40:52.750Z,101814.00
2023-04-17T11:43:21.824Z,101802.00
2023-04-17T11:45:52.392Z,101810.00
2023-04-17T11:48:22.649Z,101801.00
2023-04-17T11:50:53.679Z,101808.00
2023-04-17T11:53:22.948Z,101795.00
2023-04-17T11:56:15.974Z,101810.00
2023-04-17T11:58:51.040Z,101804.00
2023-04-17T12:01:21.304Z,101801.00
2023-04-17T12:03:49.943Z,101801.00
2023-04-17T12:06:18.246Z,101789.00
2023-04-17T12:08:50.229Z,101786.00
2023-04-17T12:11:31.227Z,101790.00
2023-04-17T12:13:59.392Z,101783.00
2023-04-17T12:16:30.157Z,101790.00
2023-04-17T12:18:58.570Z,101764.00
2023-04-17T12:21:26.368Z,101776.00
2023-04-17T12:23:54.203Z,101780.00
2023-04-17T12:26:22.216Z,101771.00
2023-04-17T12:28:50.133Z,101768.00
2023-04-17T12:31:18.082Z,101775.00
2023-04-17T12:33:47.505Z,101779.00
2023-04-17T12:36:15.346Z,101776.00
2023-04-17T12:38:44.795Z,101779.00
2023-04-17T12:41:12.912Z,101782.00
2023-04-17T12:43:40.773Z,101779.00
2023-04-17T12:46:08.891Z,101776.00
2023-04-17T12:48:37.215Z,101774.00
2023-04-17T12:51:07.740Z,101780.00
2023-04-17T12:53:35.445Z,101770.00
2023-04-17T12:56:03.792Z,101764.00
2023-04-17T12:58:31.911Z,101757.00
2023-04-17T13:00:59.811Z,101769.00
2023-04-17T13:03:27.933Z,101752.00
2023-04-17T13:05:56.809Z,101763.00
2023-04-17T13:08:26.147Z,101760.00
2023-04-17T13:10:54.784Z,101757.00
2023-04-17T13:13:23.475Z,101761.00
2023-04-17T13:15:51.364Z,101753.00
2023-04-17T13:18:19.109Z,101759.00
2023-04-17T13:20:46.842Z,101763.00
2023-04-17T13:23:14.605Z,101767.00
2023-04-17T13:25:43.781Z,101761.00
2023-04-17T13:28:12.041Z,101751.00
2023-04-17T13:30:39.963Z,101762.00
2023-04-17T13:33:07.985Z,101755.00
2023-04-17T13:35:36.057Z,101736.00
2023-04-17T13:38:04.342Z,101754.00
2023-04-17T13:40:32.560Z,101750.00
2023-04-17T13:43:01.713Z,101749.00
2023-04-17T13:45:29.710Z,101747.00
2023-04-17T13:47:57.536Z,101740.00
2023-04-17T13:50:25.863Z,101736.00
2023-04-17T13:52:53.623Z,101734.00
2023-04-17T13:55:24.407Z,101730.00
2023-04-17T13:57:52.958Z,101721.00
2023-04-17T14:00:22.770Z,101729.00
2023-04-17T14:02:50.752Z,101724.00
2023-04-17T14:05:18.607Z,101731.00
2023-04-17T14:07:47.626Z,101724.00
2023-04-17T14:10:15.449Z,101717.00
2023-04-17T14:12:43.986Z,101724.00
2023-04-17T14:15:13.096Z,101715.00
2023-04-17T14:17:43.310Z,101725.00
2023-04-17T14:20:12.355Z,101734.00
2023-04-17T14:22:42.090Z,101728.00
2023-04-17T14:25:10.496Z,101737.00
2023-04-17T14:27:38.358Z,101725.00
2023-04-17T14:30:07.660Z,101722.00
2023-04-17T14:32:35.722Z,101717.00
2023-04-17T14:35:05.717Z,101700.00
2023-04-17T14:37:34.534Z,101709.00
2023-04-17T14:40:02.504Z,101723.00
2023-04-17T14:42:31.555Z,101720.00
2023-04-17T14:45:00.754Z,101709.00
2023-04-17T14:47:30.017Z,101714.00
2023-04-17T14:49:58.775Z,101715.00
2023-04-17T14:52:28.059Z,101714.00
2023-04-17T14:54:55.823Z,101703.00
2023-04-17T14:57:24.701Z,101712.00
2023-04-17T14:59:53.863Z,101709.00
2023-04-17T15:02:21.835Z,101704.00
2023-04-17T15:04:50.411Z,101704.00
2023-04-17T15:07:18.165Z,101708.00
2023-04-17T15:09:47.392Z,101709.00
2023-04-17T15:12:15.093Z,101703.00
2023-04-17T15:14:42.820Z,101716.00
2023-04-17T15:17:10.715Z,101712.00
2023-04-17T15:19:38.814Z,101715.00
2023-04-17T15:22:06.745Z,101703.00
2023-04-17T15:24:35.773Z,101700.00
2023-04-17T15:27:04.983Z,101716.00
2023-04-17T15:29:32.690Z,101710.00
2023-04-17T15:32:01.837Z,101700.00
2023-04-17T15:34:29.746Z,101707.00
2023-04-17T15:36:58.406Z,101722.00
2023-04-17T15:39:26.211Z,101717.00
2023-04-17T15:41:55.733Z,101721.00
2023-04-17T15:44:24.907Z,101717.00
2023-04-17T15:46:52.830Z,101718.00
2023-04-17T15:49:20.555Z,101704.00
2023-04-17T15:51:48.752Z,101704.00
2023-04-17T15:54:17.624Z,101707.00
2023-04-17T15:56:45.438Z,101705.00
2023-04-17T15:59:13.313Z,101710.00
2023-04-17T16:01:42.741Z,101703.00
2023-04-17T16:04:11.099Z,101710.00
2023-04-17T16:06:39.027Z,101704.00
2023-04-17T16:09:06.907Z,101701.00
2023-04-17T16:12:08.672Z,101707.00
2023-04-17T16:14:36.832Z,101701.00
2023-04-17T16:17:06.291Z,101713.00
2023-04-17T16:19:35.353Z,101708.00
2023-04-17T16:22:03.202Z,101713.00
2023-04-17T16:24:34.390Z,101712.00
2023-04-17T16:27:02.910Z,101698.00
2023-04-17T16:29:30.905Z,101705.00
2023-04-17T16:31:59.243Z,101710.00
2023-04-17T16:34:28.391Z,101714.00
2023-04-17T16:36:56.198Z,101713.00
2023-04-17T16:39:24.762Z,101708.00
2023-04-17T16:41:52.840Z,101714.00
2023-04-17T16:44:20.735Z,101713.00
2023-04-17T16:49:19.243Z,101722.00
2023-04-17T16:51:48.388Z,101725.00
2023-04-17T16:54:16.159Z,101726.00
2023-04-17T16:56:43.894Z,101731.00
2023-04-17T16:59:11.950Z,101727.00
2023-04-17T17:01:39.948Z,101728.00
2023-04-17T17:04:07.960Z,101727.00
2023-04-17T17:06:35.730Z,101738.00
2023-04-17T17:09:05.073Z,101738.00
2023-04-17T17:11:32.856Z,101747.00
2023-04-17T17:14:00.971Z,101748.00
2023-04-17T17:16:28.839Z,101743.00
2023-04-17T17:18:56.673Z,101746.00
2023-04-17T17:21:24.556Z,101756.00
2023-04-17T17:23:52.297Z,101766.00
2023-04-17T17:26:21.674Z,101766.00
2023-04-17T17:28:51.580Z,101773.00
2023-04-17T17:31:19.620Z,101773.00
2023-04-17T17:33:50.163Z,101778.00
2023-04-17T17:36:18.379Z,101780.00
2023-04-17T17:38:46.174Z,101778.00
2023-04-17T17:41:13.971Z,101789.00
2023-04-17T17:43:43.069Z,101799.00
2023-04-17T17:46:10.837Z,101789.00
2023-04-17T17:48:38.557Z,101798.00
2023-04-17T17:51:06.438Z,101803.00
2023-04-17T17:53:34.381Z,101813.00
2023-04-17T17:56:02.567Z,101819.00
2023-04-17T17:58:30.303Z,101815.00
2023-04-17T18:00:59.467Z,101823.00
2023-04-17T18:03:27.293Z,101823.00
2023-04-17T18:05:55.859Z,101822.00
2023-04-17T18:08:23.613Z,101840.00
2023-04-17T18:10:51.367Z,101833.00
2023-04-17T18:13:19.141Z,101834.00
2023-04-17T18:15:46.941Z,101842.00
2023-04-17T18:18:16.488Z,101838.00
2023-04-17T18:20:44.335Z,101831.00
2023-04-17T18:23:12.260Z,101852.00
2023-04-17T18:25:40.625Z,101822.00
2023-04-17T18:28:08.540Z,101862.00
2023-04-17T18:30:36.522Z,101864.00
2023-04-17T18:33:04.379Z,101864.00
2023-04-17T18:35:39.432Z,101865.00
2023-04-17T18:38:10.342Z,101856.00
2023-04-17T18:40:38.799Z,101895.00
2023-04-17T18:43:06.647Z,101889.00
2023-04-17T18:45:34.685Z,101890.00
2023-04-17T18:48:02.578Z,101898.00
2023-04-17T18:50:30.848Z,101898.00
2023-04-17T18:53:03.790Z,101900.00
2023-04-17T18:55:32.208Z,101902.00
2023-04-17T18:58:00.044Z,101906.00
2023-04-17T19:00:27.787Z,101915.00
2023-04-17T19:02:55.899Z,101910.00
2023-04-17T19:05:25.261Z,101908.00
2023-04-17T19:07:53.333Z,101914.00
2023-04-17T19:10:23.026Z,101917.00
2023-04-17T19:12:50.804Z,101929.00
2023-04-17T19:15:18.638Z,101909.00
2023-04-17T19:17:46.461Z,101932.00
2023-04-17T19:20:15.750Z,101917.00
2023-04-17T19:22:43.794Z,101924.00
2023-04-17T19:25:11.963Z,101926.00
2023-04-17T19:27:41.167Z,101920.00
2023-04-17T19:30:10.070Z,101932.00
2023-04-17T19:32:37.834Z,101936.00
2023-04-17T19:35:14.616Z,101934.00
2023-04-17T19:37:42.410Z,101920.00
2023-04-17T19:40:21.531Z,101922.00
2023-04-17T19:42:53.427Z,101927.00
2023-04-17T19:45:21.501Z,101925.00
2023-04-17T19:47:54.873Z,101921.00
2023-04-17T19:50:23.340Z,101928.00
2023-04-17T19:52:51.896Z,101926.00
2023-04-17T19:55:19.734Z,101933.00
2023-04-17T19:57:49.865Z,101911.00
2023-04-17T20:00:19.319Z,101932.00
2023-04-17T20:02:47.784Z,101930.00
2023-04-17T20:05:16.912Z,101930.00
2023-04-17T20:07:44.741Z,101930.00
2023-04-17T20:10:12.950Z,101926.00
2023-04-17T20:12:40.751Z,101940.00
2023-04-17T20:15:09.835Z,101928.00
2023-04-17T20:17:39.015Z,101930.00
2023-04-17T20:20:07.840Z,101926.00
2023-04-17T20:22:35.789Z,101940.00
2023-04-17T20:25:03.607Z,101931.00
2023-04-17T20:27:31.328Z,101932.00
2023-04-17T20:29:59.071Z,101931.00
2023-04-17T20:32:26.855Z,101929.00
2023-04-17T20:34:56.019Z,101936.00
2023-04-17T20:37:24.080Z,101929.00
2023-04-17T20:39:51.822Z,101931.00
2023-04-17T20:42:19.546Z,101932.00
2023-04-17T20:44:47.201Z,101928.00
2023-04-17T20:47:15.382Z,101934.00
2023-04-17T20:49:43.137Z,101931.00
2023-04-17T20:52:12.648Z,101933.00
2023-04-17T20:54:40.370Z,101931.00
2023-04-17T20:57:08.212Z,101939.00
2023-04-17T20:59:37.168Z,101942.00
2023-04-17T21:02:04.966Z,101934.00
2023-04-17T21:04:32.824Z,101934.00
2023-04-17T21:07:00.741Z,101931.00
2023-04-17T21:09:30.077Z,101946.00
2023-04-17T21:11:57.817Z,101919.00
2023-04-17T21:14:25.809Z,101930.00
2023-04-17T21:16:56.325Z,101931.00
2023-04-17T21:19:26.017Z,101944.00
2023-04-17T21:21:53.743Z,101941.00
2023-04-17T21:24:22.071Z,101937.00
2023-04-17T21:26:51.376Z,101937.00
2023-04-17T21:29:19.036Z,101948.00
2023-04-17T21:31:46.761Z,101947.00
2023-04-17T21:34:14.823Z,101947.00
2023-04-17T21:36:42.697Z,101948.00
2023-04-17T21:39:10.451Z,101948.00
2023-04-17T21:41:38.721Z,101940.00
2023-04-17T21:44:10.291Z,101940.00
2023-04-17T21:46:38.528Z,101943.00
2023-04-17T21:49:06.305Z,101943.00
2023-04-17T21:51:34.075Z,101945.00
2023-04-17T21:54:01.764Z,101943.00
2023-04-17T21:56:29.569Z,101941.00
2023-04-17T21:58:57.297Z,101939.00
2023-04-17T22:01:26.426Z,101956.00
2023-04-17T22:03:54.296Z,101943.00
2023-04-17T22:06:22.035Z,101942.00
2023-04-17T22:08:50.175Z,101944.00
2023-04-17T22:11:17.893Z,101946.00
2023-04-17T22:13:47.019Z,101945.00
2023-04-17T22:16:14.854Z,101954.00
2023-04-17T22:18:44.136Z,101946.00
2023-04-17T22:21:14.369Z,101956.00
2023-04-17T22:23:42.309Z,101944.00
2023-04-17T22:26:10.052Z,101958.00
2023-04-17T22:28:37.766Z,101943.00
2023-04-17T22:31:05.682Z,101946.00
2023-04-17T22:33:33.410Z,101957.00
2023-04-17T22:36:02.575Z,101951.00
2023-04-17T22:38:30.382Z,101951.00
2023-04-17T22:40:58.174Z,101946.00
2023-04-17T22:43:26.476Z,101954.00
2023-04-17T22:45:54.170Z,101953.00
2023-04-17T22:48:24.509Z,101951.00
2023-04-17T22:50:52.594Z,101954.00
2023-04-17T22:53:22.459Z,101947.00
2023-04-17T22:56:00.911Z,101953.00
2023-04-17T22:58:28.705Z,101949.00
2023-04-17T23:00:56.447Z,101953.00
2023-04-17T23:03:24.205Z,101963.00
2023-04-17T23:05:54.160Z,101954.00
2023-04-17T23:08:23.770Z,101967.00
2023-04-17T23:10:58.636Z,101957.00
2023-04-17T23:13:26.983Z,101967.00
2023-04-17T23:15:55.087Z,101960.00
2023-04-17T23:18:23.295Z,101949.00
2023-04-17T23:20:51.161Z,101974.00
2023-04-17T23:23:19.384Z,101964.00
2023-04-17T23:25:48.566Z,101963.00
2023-04-17T23:28:16.244Z,101965.00
2023-04-17T23:30:44.002Z,101974.00
2023-04-17T23:33:11.707Z,101961.00
2023-04-17T23:35:39.480Z,101977.00
2023-04-17T23:38:07.285Z,101983.00
2023-04-17T23:40:35.776Z,101969.00
2023-04-17T23:43:06.026Z,101973.00
2023-04-17T23:45:33.867Z,101965.00
2023-04-17T23:48:01.675Z,101974.00
2023-04-17T23:50:29.408Z,101971.00
2023-04-17T23:52:57.168Z,101970.00
2023-04-17T23:55:26.452Z,101973.00
2023-04-17T23:57:54.438Z,101977.00
